Time;durP1;ratioP1;P1;durP2;ratioP2;P2;SDS_P1;SDS_P2;PMS_P1;PMS_P2;Temp;Humidity;BMP_temperature;BMP_pressure;BME280_temperature;BME280_humidity;BME280_pressure;Samples;Min_cycle;Max_cycle;Signal;HPM_P1;HPM_P2
2021/10/31 00:01:15;;;;;;;;;;;;;;;2.69;74.29;102409.81;1822734;79;20125;-61
2021/10/31 00:03:43;;;;;;;;;;;;;;;2.72;73.93;102410.72;1822749;79;20121;-61
2021/10/31 00:06:11;;;;;;;;;;;;;;;2.76;73.61;102398.23;1822801;79;20152;-61
2021/10/31 00:08:39;;;;;;;;;;;;;;;2.79;73.38;102397.86;1822877;79;20271;-61
2021/10/31 00:11:06;;;;;;;;;;;;;;;2.83;73.20;102386.66;1872451;77;20117;-60
2021/10/31 00:13:35;;;;;;;;;;;;;;;2.84;73.06;102397.53;1852801;76;20138;-61
2021/10/31 00:16:03;;;;;;;;;;;;;;;2.86;72.99;102391.07;1852444;77;20389;-64
2021/10/31 00:18:31;;;;;;;;;;;;;;;2.86;72.98;102388.47;1852576;77;20146;-63
2021/10/31 00:23:47;;;;;;;;;;;;;;;2.84;73.10;102388.43;1835336;78;20402;-61
2021/10/31 00:26:15;;;;;;;;;;;;;;;2.82;73.29;102389.23;1835275;78;20119;-60
2021/10/31 00:28:43;;;;;;;;;;;;;;;2.75;73.64;102388.25;1835036;78;20218;-63
2021/10/31 00:31:11;;;;;;;;;;;;;;;2.70;73.97;102392.48;1835161;78;20149;-63
2021/10/31 00:33:39;;;;;;;;;;;;;;;2.70;73.66;102388.14;1835086;78;20154;-63
2021/10/31 00:36:06;;;;;;;;;;;;;;;2.69;73.75;102387.70;1835082;78;20119;-63
2021/10/31 00:38:34;;;;;;;;;;;;;;;2.66;73.78;102391.97;1835241;78;20120;-63
2021/10/31 00:41:02;;;;;;;;;;;;;;;2.63;73.66;102386.27;1835002;78;20150;-63
2021/10/31 00:43:30;;;;;;;;;;;;;;;2.60;73.64;102383.63;1835108;78;20124;-63
2021/10/31 00:45:58;;;;;;;;;;;;;;;2.51;73.97;102380.84;1835171;78;20119;-63
2021/10/31 00:48:25;;;;;;;;;;;;;;;2.39;74.48;102385.77;1835166;78;20123;-63
2021/10/31 00:50:53;;;;;;;;;;;;;;;2.34;74.43;102371.79;1835137;78;20119;-63
2021/10/31 00:53:21;;;;;;;;;;;;;;;2.36;74.17;102375.30;1835121;78;20120;-63
2021/10/31 00:55:49;;;;;;;;;;;;;;;2.37;73.90;102371.86;1835193;78;20227;-63
2021/10/31 00:58:18;;;;;;;;;;;;;;;2.37;73.71;102364.94;1835135;78;20378;-63
2021/10/31 01:00:47;;;;;;;;;;;;;;;2.38;73.60;102360.20;1835253;78;20382;-63
2021/10/31 01:03:15;;;;;;;;;;;;;;;2.39;73.52;102359.77;1835087;78;20112;-63
2021/10/31 01:05:46;;;;;;;;;;;;;;;2.37;73.59;102364.94;1835130;78;20189;-63
2021/10/31 01:08:18;;;;;;;;;;;;;;;2.37;73.55;102364.06;1835052;78;20111;-63
2021/10/31 01:10:46;;;;;;;;;;;;;;;2.38;73.41;102358.91;1834593;78;20123;-63
2021/10/31 01:13:27;;;;;;;;;;;;;;;2.38;73.32;102358.91;1835231;78;20119;-63
2021/10/31 01:15:59;;;;;;;;;;;;;;;2.39;73.24;102357.17;1835143;78;20145;-63
2021/10/31 01:18:46;;;;;;;;;;;;;;;2.39;73.25;102357.17;1835146;78;20112;-63
2021/10/31 01:21:30;;;;;;;;;;;;;;;2.36;73.59;102359.30;1835166;78;20116;-63
2021/10/31 01:24:02;;;;;;;;;;;;;;;2.28;73.80;102360.41;1867479;77;20122;-63
2021/10/31 01:26:44;;;;;;;;;;;;;;;2.25;74.28;102360.37;1871104;77;20145;-63
2021/10/31 01:29:23;;;;;;;;;;;;;;;2.25;73.96;102360.77;1870977;77;20236;-63
2021/10/31 01:31:55;;;;;;;;;;;;;;;2.23;73.94;102355.96;1871091;77;20119;-63
2021/10/31 01:34:40;;;;;;;;;;;;;;;2.19;74.23;102347.22;1861312;77;20118;-63
2021/10/31 01:37:25;;;;;;;;;;;;;;;2.20;74.08;102353.32;1833291;78;20129;-63
2021/10/31 01:40:05;;;;;;;;;;;;;;;2.16;74.60;102356.27;1863601;77;20203;-63
2021/10/31 01:42:51;;;;;;;;;;;;;;;2.12;74.85;102350.53;1869665;77;20408;-63
2021/10/31 01:45:23;;;;;;;;;;;;;;;2.20;74.65;102351.59;1871131;77;20152;-63
2021/10/31 01:47:57;;;;;;;;;;;;;;;2.29;74.54;102350.48;1870527;75;20143;-60
2021/10/31 01:50:37;;;;;;;;;;;;;;;2.38;74.58;102355.41;1874321;76;20125;-60
2021/10/31 01:53:21;;;;;;;;;;;;;;;2.42;74.80;102350.31;1876334;76;20450;-60
2021/10/31 01:55:57;;;;;;;;;;;;;;;2.49;74.55;102352.59;1924829;72;20109;-58
2021/10/31 01:58:48;;;;;;;;;;;;;;;2.46;74.79;102361.66;1896370;76;20445;-60
2021/10/31 02:01:17;;;;;;;;;;;;;;;2.40;75.22;102349.81;1894907;74;20115;-60
2021/10/31 02:03:47;;;;;;;;;;;;;;;2.45;75.19;102350.79;1896436;76;20119;-62
2021/10/31 02:06:15;;;;;;;;;;;;;;;2.48;75.42;102349.13;1896394;76;20120;-60
2021/10/31 02:08:45;;;;;;;;;;;;;;;2.52;75.28;102350.06;1896389;76;20115;-60
2021/10/31 02:11:16;;;;;;;;;;;;;;;2.60;75.09;102345.91;1896442;76;20417;-60
2021/10/31 02:13:44;;;;;;;;;;;;;;;2.67;74.80;102346.49;1896417;76;20123;-60
2021/10/31 02:16:13;;;;;;;;;;;;;;;2.76;74.60;102350.10;1896466;76;20127;-60
2021/10/31 02:18:41;;;;;;;;;;;;;;;2.84;74.43;102356.31;1896473;75;20419;-60
2021/10/31 02:21:11;;;;;;;;;;;;;;;2.89;74.29;102350.78;1896352;76;20111;-60
2021/10/31 02:23:39;;;;;;;;;;;;;;;2.88;74.44;102355.11;1896381;76;20111;-61
2021/10/31 02:26:07;;;;;;;;;;;;;;;2.89;74.48;102354.68;1896531;75;20115;-61
2021/10/31 02:28:36;;;;;;;;;;;;;;;2.90;74.50;102359.05;1896449;76;20112;-60
2021/10/31 02:31:04;;;;;;;;;;;;;;;2.85;74.91;102353.74;1896488;76;20112;-60
2021/10/31 02:33:31;;;;;;;;;;;;;;;2.88;74.73;102350.34;1896377;76;20150;-60
2021/10/31 02:35:59;;;;;;;;;;;;;;;2.93;74.67;102354.31;1896445;76;20115;-60
2021/10/31 02:38:27;;;;;;;;;;;;;;;2.96;74.79;102356.55;1896454;76;20115;-60
2021/10/31 02:40:55;;;;;;;;;;;;;;;2.97;74.91;102346.61;1896544;76;20142;-60
2021/10/31 02:43:22;;;;;;;;;;;;;;;2.98;75.06;102347.05;1896415;76;20111;-60
2021/10/31 02:45:50;;;;;;;;;;;;;;;2.99;75.15;102348.81;1896450;76;20154;-60
2021/10/31 02:48:20;;;;;;;;;;;;;;;3.02;75.36;102348.84;1896309;76;20119;-61
2021/10/31 02:50:47;;;;;;;;;;;;;;;3.03;75.87;102345.41;1896419;76;20111;-61
2021/10/31 02:53:20;;;;;;;;;;;;;;;3.06;75.54;102351.98;1896426;76;20127;-61
2021/10/31 02:56:07;;;;;;;;;;;;;;;3.13;75.33;102342.97;1896456;74;20115;-60
2021/10/31 02:58:36;;;;;;;;;;;;;;;3.19;75.24;102343.96;1896606;74;20119;-61
2021/10/31 03:01:05;;;;;;;;;;;;;;;3.25;75.06;102344.48;1896455;76;20111;-61
2021/10/31 03:03:34;;;;;;;;;;;;;;;3.29;74.95;102348.45;1896428;76;20361;-61
2021/10/31 03:06:04;;;;;;;;;;;;;;;3.35;75.06;102346.81;1896466;76;20401;-60
2021/10/31 03:08:32;;;;;;;;;;;;;;;3.30;75.27;102342.81;1896407;76;20149;-60
2021/10/31 03:11:02;;;;;;;;;;;;;;;3.27;75.72;102340.18;1896394;76;20123;-61
2021/10/31 03:13:29;;;;;;;;;;;;;;;3.27;75.76;102337.14;1896454;74;20192;-61
2021/10/31 03:15:57;;;;;;;;;;;;;;;3.31;75.67;102334.60;1896464;76;20111;-60
2021/10/31 03:18:25;;;;;;;;;;;;;;;3.28;75.94;102339.31;1896388;76;20119;-60
2021/10/31 03:20:53;;;;;;;;;;;;;;;3.29;76.12;102335.88;1896438;76;20119;-60
2021/10/31 03:23:21;;;;;;;;;;;;;;;3.33;76.01;102332.89;1896408;76;20146;-61
2021/10/31 03:25:49;;;;;;;;;;;;;;;3.37;75.88;102327.74;1896393;76;20147;-60
2021/10/31 03:28:17;;;;;;;;;;;;;;;3.42;75.74;102324.80;1896526;76;20103;-60
2021/10/31 03:30:45;;;;;;;;;;;;;;;3.46;75.67;102325.29;1896418;76;20119;-61
2021/10/31 03:33:13;;;;;;;;;;;;;;;3.52;75.58;102323.64;1896447;76;20146;-61
2021/10/31 03:35:41;;;;;;;;;;;;;;;3.56;75.46;102322.83;1896420;76;20145;-61
2021/10/31 03:38:08;;;;;;;;;;;;;;;3.59;75.54;102320.28;1896381;76;20116;-60
2021/10/31 03:40:36;;;;;;;;;;;;;;;3.52;75.83;102317.13;1896405;76;20190;-60
2021/10/31 03:43:04;;;;;;;;;;;;;;;3.46;76.09;102322.69;1896408;76;20112;-61
2021/10/31 03:45:32;;;;;;;;;;;;;;;3.46;76.05;102316.17;1896449;76;20107;-60
2021/10/31 03:48:03;;;;;;;;;;;;;;;3.46;76.10;102309.66;1896400;76;20138;-60
2021/10/31 03:50:31;;;;;;;;;;;;;;;3.45;76.24;102304.02;1896524;76;20198;-61
2021/10/31 03:52:59;;;;;;;;;;;;;;;3.51;76.33;102303.24;1896346;76;20150;-60
2021/10/31 03:55:27;;;;;;;;;;;;;;;3.58;76.20;102300.28;1896440;76;20103;-61
2021/10/31 03:57:56;;;;;;;;;;;;;;;3.62;75.94;102299.50;1896346;74;20108;-61
2021/10/31 04:00:24;;;;;;;;;;;;;;;3.61;76.15;102295.13;1896384;76;20384;-61
2021/10/31 04:02:52;;;;;;;;;;;;;;;3.57;76.40;102295.95;1896404;76;20123;-60
2021/10/31 04:05:20;;;;;;;;;;;;;;;3.52;76.71;102293.25;1896318;76;20142;-62
2021/10/31 04:07:48;;;;;;;;;;;;;;;3.50;76.65;102296.70;1896366;76;20190;-61
2021/10/31 04:10:15;;;;;;;;;;;;;;;3.52;76.62;102300.20;1896459;76;20115;-61
2021/10/31 04:12:43;;;;;;;;;;;;;;;3.54;76.75;102299.39;1896449;76;20145;-60
2021/10/31 04:15:11;;;;;;;;;;;;;;;3.53;76.91;102307.17;1896375;75;20115;-60
2021/10/31 04:17:39;;;;;;;;;;;;;;;3.54;77.04;102295.89;1896404;76;20115;-60
2021/10/31 04:20:07;;;;;;;;;;;;;;;3.55;77.19;102297.66;1896331;76;20127;-60
2021/10/31 04:22:35;;;;;;;;;;;;;;;3.59;77.23;102296.84;1896415;76;20119;-60
2021/10/31 04:25:04;;;;;;;;;;;;;;;3.62;77.31;102291.69;1896379;76;20142;-60
2021/10/31 04:27:32;;;;;;;;;;;;;;;3.63;77.37;102293.41;1896403;76;20107;-60
2021/10/31 04:29:59;;;;;;;;;;;;;;;3.68;77.28;102290.45;1896444;76;20159;-60
2021/10/31 04:32:27;;;;;;;;;;;;;;;3.74;77.07;102297.48;1896389;76;20150;-60
2021/10/31 04:34:55;;;;;;;;;;;;;;;3.75;77.00;102297.52;1896418;76;20217;-60
2021/10/31 04:37:24;;;;;;;;;;;;;;;3.80;77.01;102293.25;1896383;76;20148;-61
2021/10/31 04:39:51;;;;;;;;;;;;;;;3.89;76.81;102302.03;1896410;76;20157;-61
2021/10/31 04:42:19;;;;;;;;;;;;;;;3.97;76.56;102301.29;1896363;76;20150;-60
2021/10/31 04:44:47;;;;;;;;;;;;;;;4.03;76.37;102301.80;1896392;76;20107;-62
2021/10/31 04:47:15;;;;;;;;;;;;;;;4.08;76.42;102306.65;1895873;76;20157;-71
2021/10/31 04:49:44;;;;;;;;;;;;;;;4.16;76.22;102308.91;1895943;76;20145;-65
2021/10/31 04:52:12;;;;;;;;;;;;;;;4.22;75.96;102309.01;1896270;76;20115;-63
2021/10/31 04:54:40;;;;;;;;;;;;;;;4.27;75.74;102310.35;1896401;76;20167;-63
2021/10/31 04:57:08;;;;;;;;;;;;;;;4.26;75.75;102306.02;1884438;76;20117;-63
2021/10/31 04:59:36;;;;;;;;;;;;;;;4.28;75.89;102308.61;1865330;76;20105;-63
2021/10/31 05:02:04;;;;;;;;;;;;;;;4.34;75.88;102311.31;1881859;75;20157;-67
2021/10/31 05:04:32;;;;;;;;;;;;;;;4.43;75.68;102317.50;1896104;76;20250;-67
2021/10/31 05:06:59;;;;;;;;;;;;;;;4.48;75.47;102313.62;1894906;76;20154;-63
2021/10/31 05:09:27;;;;;;;;;;;;;;;4.46;75.49;102310.12;1867954;76;20264;-67
2021/10/31 05:11:55;;;;;;;;;;;;;;;4.46;75.90;102310.12;1885517;76;20107;-62
2021/10/31 05:14:23;;;;;;;;;;;;;;;4.48;75.59;102312.33;1863671;76;20148;-63
2021/10/31 05:16:50;;;;;;;;;;;;;;;4.51;75.34;102316.28;1885274;76;20162;-64
2021/10/31 05:19:18;;;;;;;;;;;;;;;4.55;75.21;102311.54;1899476;76;20115;-65
2021/10/31 05:21:46;;;;;;;;;;;;;;;4.60;75.10;102320.30;1885133;75;20162;-67
2021/10/31 05:24:14;;;;;;;;;;;;;;;4.67;74.98;102317.75;1876281;76;20143;-66
2021/10/31 05:26:42;;;;;;;;;;;;;;;4.74;74.83;102319.56;1870118;76;20199;-64
2021/10/31 05:29:10;;;;;;;;;;;;;;;4.78;74.80;102326.59;1866194;76;20310;-64
2021/10/31 05:31:39;;;;;;;;;;;;;;;4.80;74.71;102321.82;1839851;77;20120;-65
2021/10/31 05:34:07;;;;;;;;;;;;;;;4.83;74.69;102328.80;1824027;78;20378;-63
2021/10/31 05:36:35;;;;;;;;;;;;;;;4.87;74.71;102327.98;1840038;77;20119;-64
2021/10/31 05:39:04;;;;;;;;;;;;;;;4.88;74.59;102328.42;1930803;74;20101;-65
2021/10/31 05:41:32;;;;;;;;;;;;;;;4.91;74.60;102327.16;1916376;74;20202;-65
2021/10/31 05:44:00;;;;;;;;;;;;;;;4.97;74.48;102331.12;1897597;76;20116;-63
2021/10/31 05:46:28;;;;;;;;;;;;;;;5.03;74.45;102333.81;1910926;74;20101;-64
2021/10/31 05:48:56;;;;;;;;;;;;;;;5.03;74.43;102335.11;1930862;74;20185;-64
2021/10/31 05:51:24;;;;;;;;;;;;;;;5.07;74.30;102332.51;1918212;74;20116;-65
2021/10/31 05:53:52;;;;;;;;;;;;;;;5.04;74.43;102332.06;1897438;76;20187;-65
2021/10/31 05:56:20;;;;;;;;;;;;;;;5.09;74.51;102331.69;1909075;74;20140;-65
2021/10/31 05:58:47;;;;;;;;;;;;;;;5.18;74.47;102336.09;1930804;73;20122;-65
2021/10/31 06:01:15;;;;;;;;;;;;;;;5.27;74.24;102337.48;1930988;73;20102;-64
2021/10/31 06:03:43;;;;;;;;;;;;;;;5.34;74.08;102332.75;1930825;74;20620;-65
2021/10/31 06:06:11;;;;;;;;;;;;;;;5.43;73.93;102331.09;1930784;74;20126;-66
2021/10/31 06:08:39;;;;;;;;;;;;;;;5.45;73.96;102333.28;1930861;74;20199;-65
2021/10/31 06:11:15;;;;;;;;;;;;;;;5.46;74.07;102327.17;1930868;74;20118;-65
2021/10/31 06:13:43;;;;;;;;;;;;;;;5.46;74.22;102335.91;1930858;74;20145;-65
2021/10/31 06:16:11;;;;;;;;;;;;;;;5.47;74.02;102335.03;1930799;74;20191;-65
2021/10/31 06:18:40;;;;;;;;;;;;;;;5.53;73.91;102330.28;1930713;74;20144;-61
2021/10/31 06:21:08;;;;;;;;;;;;;;;5.57;73.86;102328.13;1928471;73;20212;-60
2021/10/31 06:23:36;;;;;;;;;;;;;;;5.63;73.72;102322.09;1923393;75;20111;-61
2021/10/31 06:26:04;;;;;;;;;;;;;;;5.63;73.94;102329.50;1917534;74;20128;-60
2021/10/31 06:28:32;;;;;;;;;;;;;;;5.63;74.04;102332.11;1897527;76;20113;-63
2021/10/31 06:31:00;;;;;;;;;;;;;;;5.66;73.94;102325.58;1952803;73;20141;-63
2021/10/31 06:33:29;;;;;;;;;;;;;;;5.72;73.79;102324.33;1930876;74;20101;-62
2021/10/31 06:35:57;;;;;;;;;;;;;;;5.76;73.75;102317.38;1929433;74;20377;-61
2021/10/31 06:38:30;;;;;;;;;;;;;;;5.73;73.94;102323.45;1923694;75;20122;-62
2021/10/31 06:40:58;;;;;;;;;;;;;;;5.73;74.11;102326.06;1924895;74;20118;-62
2021/10/31 06:43:26;;;;;;;;;;;;;;;5.71;74.02;102310.80;1930937;74;20102;-63
2021/10/31 06:45:54;;;;;;;;;;;;;;;5.74;74.17;102312.14;1925137;74;20128;-61
2021/10/31 06:48:22;;;;;;;;;;;;;;;5.77;74.11;102305.64;1897685;76;20112;-63
2021/10/31 06:50:53;;;;;;;;;;;;;;;5.80;74.15;102310.00;1905703;73;20179;-61
2021/10/31 06:53:19;;;;;;;;;;;;;;;5.82;74.30;102303.47;1959177;73;20143;-57
2021/10/31 06:55:47;;;;;;;;;;;;;;;5.86;74.09;102300.00;1958691;73;20139;-57
2021/10/31 06:58:15;;;;;;;;;;;;;;;5.86;74.31;102301.31;1959137;73;20100;-57
2021/10/31 07:00:43;;;;;;;;;;;;;;;5.91;74.10;102303.53;1947486;73;20227;-57
2021/10/31 07:03:11;;;;;;;;;;;;;;;5.92;73.99;102298.72;1918860;75;20151;-60
2021/10/31 07:05:39;;;;;;;;;;;;;;;5.89;73.99;102297.42;1919690;73;20144;-57
2021/10/31 07:08:07;;;;;;;;;;;;;;;5.90;74.23;102291.31;1946488;74;20103;-58
2021/10/31 07:10:34;;;;;;;;;;;;;;;5.93;74.20;102291.33;1944632;74;20102;-57
2021/10/31 07:13:03;;;;;;;;;;;;;;;5.96;74.10;102285.72;1886110;76;20103;-59
2021/10/31 07:15:31;;;;;;;;;;;;;;;6.01;74.06;102284.42;1886150;76;20107;-61
2021/10/31 07:17:59;;;;;;;;;;;;;;;6.06;73.92;102282.70;1946588;73;20110;-58
2021/10/31 07:20:27;;;;;;;;;;;;;;;6.13;74.00;102284.92;1946576;74;20115;-61
2021/10/31 07:22:54;;;;;;;;;;;;;;;6.15;74.22;102280.13;1918543;74;20113;-61
2021/10/31 07:25:24;;;;;;;;;;;;;;;6.18;74.16;102276.67;1918573;74;20151;-60
2021/10/31 07:27:53;;;;;;;;;;;;;;;6.14;74.05;102277.09;1918422;75;20105;-60
2021/10/31 07:30:21;;;;;;;;;;;;;;;6.13;74.24;102277.94;1918800;75;20116;-58
2021/10/31 07:32:56;;;;;;;;;;;;;;;6.14;74.41;102284.04;1887495;75;20115;-58
2021/10/31 07:35:24;;;;;;;;;;;;;;;6.16;74.74;102276.66;1886322;75;20154;-58
2021/10/31 07:37:52;;;;;;;;;;;;;;;6.13;74.55;102284.48;1918121;73;20105;-59
2021/10/31 07:40:20;;;;;;;;;;;;;;;6.11;74.67;102281.44;1918772;75;20120;-61
2021/10/31 07:42:48;;;;;;;;;;;;;;;6.13;74.68;102288.41;1918458;75;20113;-60
2021/10/31 07:45:15;;;;;;;;;;;;;;;6.16;74.61;102284.51;1918634;75;20112;-66
2021/10/31 07:47:43;;;;;;;;;;;;;;;6.24;74.72;102277.13;1888564;75;20115;-70
2021/10/31 07:50:11;;;;;;;;;;;;;;;6.30;74.49;102271.46;1886133;75;20157;-69
2021/10/31 07:52:45;;;;;;;;;;;;;;;6.36;74.33;102271.50;1915039;75;20182;-69
2021/10/31 07:55:20;;;;;;;;;;;;;;;6.37;74.74;102265.38;1918739;75;20113;-68
2021/10/31 07:57:45;;;;;;;;;;;;;;;6.32;74.70;102265.80;1888307;74;20115;-68
2021/10/31 08:00:13;;;;;;;;;;;;;;;6.29;74.69;102263.60;1889009;76;20147;-68
2021/10/31 08:02:41;;;;;;;;;;;;;;;6.32;74.69;102264.48;1927738;74;20157;-68
2021/10/31 08:05:09;;;;;;;;;;;;;;;6.36;75.04;102262.75;1930809;74;20144;-59
2021/10/31 08:07:38;;;;;;;;;;;;;;;6.39;75.14;102269.31;1901567;74;20116;-61
2021/10/31 08:10:07;;;;;;;;;;;;;;;6.38;74.92;102264.94;1897671;76;20108;-61
2021/10/31 08:12:36;;;;;;;;;;;;;;;6.33;74.84;102261.45;1926288;74;20114;-63
2021/10/31 08:15:04;;;;;;;;;;;;;;;6.33;74.84;102265.39;1930961;74;20114;-59
2021/10/31 08:17:31;;;;;;;;;;;;;;;6.43;74.94;102257.98;1902972;74;20176;-61
2021/10/31 08:19:59;;;;;;;;;;;;;;;6.52;74.91;102259.31;1897573;76;20143;-69
2021/10/31 08:22:27;;;;;;;;;;;;;;;6.59;74.93;102254.97;1924487;74;20118;-68
2021/10/31 08:24:55;;;;;;;;;;;;;;;6.65;74.73;102258.03;1930953;74;20110;-67
2021/10/31 08:27:23;;;;;;;;;;;;;;;6.72;74.74;102255.87;1904827;74;20120;-68
2021/10/31 08:29:52;;;;;;;;;;;;;;;6.69;74.45;102255.85;1897601;75;20159;-68
2021/10/31 08:32:22;;;;;;;;;;;;;;;6.60;74.45;102252.77;1922854;74;20180;-68
2021/10/31 08:34:49;;;;;;;;;;;;;;;6.65;74.50;102250.19;1930942;74;20144;-68
2021/10/31 08:37:17;;;;;;;;;;;;;;;6.73;74.34;102247.13;1906127;74;20116;-67
2021/10/31 08:39:45;;;;;;;;;;;;;;;6.85;74.50;102241.91;1897607;76;20146;-67
2021/10/31 08:42:14;;;;;;;;;;;;;;;6.87;74.17;102237.98;1921260;74;20118;-66
2021/10/31 08:44:42;;;;;;;;;;;;;;;6.91;74.19;102235.35;1930773;74;20462;-68
2021/10/31 08:47:10;;;;;;;;;;;;;;;6.93;74.06;102232.33;1907798;74;20147;-68
2021/10/31 08:49:38;;;;;;;;;;;;;;;6.90;73.95;102232.31;1897874;76;20137;-68
2021/10/31 08:52:07;;;;;;;;;;;;;;;6.92;74.07;102233.19;1897597;76;20151;-64
2021/10/31 08:54:36;;;;;;;;;;;;;;;6.92;73.93;102230.56;1897705;76;20140;-65
2021/10/31 08:57:06;;;;;;;;;;;;;;;6.91;74.06;102226.19;1897540;76;20100;-65
2021/10/31 08:59:34;;;;;;;;;;;;;;;6.88;74.20;102225.31;1897036;76;20386;-59
2021/10/31 09:02:02;;;;;;;;;;;;;;;6.83;74.22;102221.41;1888378;75;20109;-60
2021/10/31 09:04:31;;;;;;;;;;;;;;;6.85;74.19;102221.41;1885560;76;20109;-61
2021/10/31 09:06:58;;;;;;;;;;;;;;;6.93;74.20;102219.23;1905506;75;20126;-59
2021/10/31 09:09:26;;;;;;;;;;;;;;;7.04;74.00;102222.27;1905553;73;20144;-66
2021/10/31 09:11:54;;;;;;;;;;;;;;;7.12;74.09;102217.47;1881934;75;20517;-65
2021/10/31 09:14:22;;;;;;;;;;;;;;;7.23;74.00;102209.59;1899080;75;20123;-66
2021/10/31 09:16:50;;;;;;;;;;;;;;;7.31;73.77;102209.13;1885710;75;20147;-65
2021/10/31 09:19:18;;;;;;;;;;;;;;;7.42;73.58;102220.05;1885567;76;20117;-63
2021/10/31 09:21:46;;;;;;;;;;;;;;;7.44;73.33;102218.28;1902625;75;20146;-63
2021/10/31 09:24:14;;;;;;;;;;;;;;;7.42;73.33;102217.42;1918292;75;20110;-63
2021/10/31 09:26:42;;;;;;;;;;;;;;;7.41;73.29;102218.28;1901919;75;20171;-63
2021/10/31 09:29:10;;;;;;;;;;;;;;;7.43;73.29;102219.15;1885507;76;20147;-63
2021/10/31 09:31:38;;;;;;;;;;;;;;;7.45;73.22;102210.84;1900859;75;20107;-63
2021/10/31 09:34:06;;;;;;;;;;;;;;;7.48;73.29;102208.22;1918360;75;20115;-63
2021/10/31 09:36:35;;;;;;;;;;;;;;;7.51;73.16;102206.92;1903655;75;20147;-64
2021/10/31 09:39:05;;;;;;;;;;;;;;;7.53;73.24;102199.91;1885402;76;20175;-63
2021/10/31 09:41:34;;;;;;;;;;;;;;;7.62;73.26;102201.64;1885474;75;20155;-63
2021/10/31 09:44:20;;;;;;;;;;;;;;;7.80;73.11;102195.02;1914799;74;20152;-63
2021/10/31 09:46:45;;;;;;;;;;;;;;;7.98;72.87;102194.48;1886085;75;20143;-65
2021/10/31 09:49:13;;;;;;;;;;;;;;;8.19;72.60;102195.70;1885412;76;20117;-65
2021/10/31 09:51:43;;;;;;;;;;;;;;;8.32;72.16;102191.25;1885511;76;20108;-65
2021/10/31 09:54:12;;;;;;;;;;;;;;;8.47;71.85;102185.91;1885738;76;20371;-65
2021/10/31 09:56:41;;;;;;;;;;;;;;;8.66;71.44;102180.52;1885536;76;20391;-65
2021/10/31 09:59:17;;;;;;;;;;;;;;;8.75;70.98;102173.88;1885508;76;20151;-65
2021/10/31 10:04:27;;;;;;;;;;;;;;;9.57;69.51;102165.16;1885630;76;20144;-65
2021/10/31 10:06:56;;;;;;;;;;;;;;;10.14;68.07;102153.88;1885476;76;20121;-65
2021/10/31 10:09:24;;;;;;;;;;;;;;;10.73;66.68;102149.45;1885694;76;20386;-65
2021/10/31 10:11:52;;;;;;;;;;;;;;;11.02;65.69;102152.03;1885612;76;20167;-65
2021/10/31 10:14:25;;;;;;;;;;;;;;;11.34;64.65;102141.31;1885457;76;20124;-66
2021/10/31 10:17:00;;;;;;;;;;;;;;;11.73;63.53;102141.38;1885576;76;20469;-65
2021/10/31 10:19:35;;;;;;;;;;;;;;;12.42;62.42;102141.63;1885691;76;20380;-65
2021/10/31 10:22:05;;;;;;;;;;;;;;;13.06;61.09;102130.72;1885602;76;20894;-65
2021/10/31 10:24:35;;;;;;;;;;;;;;;14.06;59.44;102128.28;1885541;76;20120;-66
2021/10/31 10:27:04;;;;;;;;;;;;;;;14.78;58.65;102125.07;1885529;76;20155;-66
2021/10/31 10:29:33;;;;;;;;;;;;;;;15.54;57.72;102125.86;1885566;76;20151;-66
2021/10/31 10:32:02;;;;;;;;;;;;;;;15.97;56.43;102126.88;1885627;76;20144;-66
2021/10/31 10:34:31;;;;;;;;;;;;;;;16.02;55.73;102126.23;1885598;76;20413;-65
2021/10/31 10:37:01;;;;;;;;;;;;;;;16.15;55.28;102123.48;1885507;76;20113;-66
2021/10/31 10:39:30;;;;;;;;;;;;;;;16.36;55.22;102121.76;1885823;75;20140;-65
2021/10/31 10:41:58;;;;;;;;;;;;;;;16.75;55.07;102115.68;1885454;76;20117;-65
2021/10/31 10:44:27;;;;;;;;;;;;;;;16.85;54.35;102120.16;1885506;76;20157;-65
2021/10/31 10:47:09;;;;;;;;;;;;;;;16.91;54.41;102120.36;1885540;76;20112;-66
2021/10/31 10:49:38;;;;;;;;;;;;;;;17.03;54.12;102113.17;1885495;76;20125;-65
2021/10/31 10:52:23;;;;;;;;;;;;;;;17.19;53.93;102113.37;1885496;76;20181;-65
2021/10/31 10:54:55;;;;;;;;;;;;;;;17.21;53.65;102103.95;1885690;76;20113;-65
2021/10/31 10:57:24;;;;;;;;;;;;;;;17.13;53.63;102098.54;1885575;76;20191;-66
2021/10/31 10:59:52;;;;;;;;;;;;;;;17.34;53.72;102102.48;1885552;76;20132;-66
2021/10/31 11:02:22;;;;;;;;;;;;;;;17.09;52.81;102090.75;1882959;75;20105;-66
2021/10/31 11:04:54;;;;;;;;;;;;;;;16.92;52.94;102092.36;1879392;76;20383;-66
2021/10/31 11:07:26;;;;;;;;;;;;;;;16.75;52.94;102099.72;1879347;76;20180;-66
2021/10/31 11:09:54;;;;;;;;;;;;;;;16.54;52.79;102094.87;1879446;75;20155;-66
2021/10/31 11:12:23;;;;;;;;;;;;;;;16.43;53.24;102092.25;1879411;76;20148;-68
2021/10/31 11:14:52;;;;;;;;;;;;;;;16.58;53.28;102092.48;1879436;76;20210;-65
2021/10/31 11:17:24;;;;;;;;;;;;;;;16.71;53.52;102090.59;1879350;76;20143;-65
2021/10/31 11:19:53;;;;;;;;;;;;;;;16.75;53.55;102092.22;1879439;76;20259;-65
2021/10/31 11:22:22;;;;;;;;;;;;;;;16.79;53.77;102087.16;1879555;76;20117;-65
2021/10/31 11:24:50;;;;;;;;;;;;;;;16.84;53.73;102074.56;1879427;76;20425;-65
2021/10/31 11:27:22;;;;;;;;;;;;;;;16.81;53.97;102071.99;1879316;76;20163;-65
2021/10/31 11:29:51;;;;;;;;;;;;;;;16.92;54.07;102072.41;1879424;76;20125;-65
2021/10/31 11:32:20;;;;;;;;;;;;;;;17.03;53.99;102070.60;1879439;76;20143;-65
2021/10/31 11:34:49;;;;;;;;;;;;;;;16.90;53.20;102070.28;1879357;76;20117;-65
2021/10/31 11:37:19;;;;;;;;;;;;;;;16.51;53.58;102070.20;1879406;76;20387;-65
2021/10/31 11:39:47;;;;;;;;;;;;;;;16.27;53.93;102063.67;1879445;76;20116;-65
2021/10/31 11:42:17;;;;;;;;;;;;;;;15.92;54.05;102066.45;1879455;76;20121;-65
2021/10/31 11:45:03;;;;;;;;;;;;;;;15.58;54.15;102069.06;1879385;76;20151;-65
2021/10/31 11:47:31;;;;;;;;;;;;;;;15.10;54.43;102068.20;1879325;76;20147;-66
2021/10/31 11:50:02;;;;;;;;;;;;;;;14.41;56.12;102062.69;1879584;76;20129;-66
2021/10/31 11:52:36;;;;;;;;;;;;;;;13.89;56.61;102062.62;1879344;75;20410;-65
2021/10/31 11:55:12;;;;;;;;;;;;;;;13.51;57.28;102065.52;1880292;75;20121;-65
2021/10/31 11:57:43;;;;;;;;;;;;;;;13.23;57.74;102067.23;1874655;75;20113;-65
2021/10/31 12:00:13;;;;;;;;;;;;;;;13.03;58.23;102067.34;1869957;77;20109;-70
2021/10/31 12:02:47;;;;;;;;;;;;;;;12.87;58.57;102065.59;1877073;76;20197;-69
2021/10/31 12:05:20;;;;;;;;;;;;;;;12.78;59.10;102066.27;1897745;76;20155;-69
2021/10/31 12:07:50;;;;;;;;;;;;;;;12.67;59.34;102063.48;1898122;74;20417;-69
2021/10/31 12:10:28;;;;;;;;;;;;;;;12.63;59.39;102061.80;1897572;76;20116;-69
2021/10/31 12:13:10;;;;;;;;;;;;;;;12.61;59.71;102066.27;1897490;75;20108;-69
2021/10/31 12:15:38;;;;;;;;;;;;;;;12.58;59.77;102062.41;1897617;76;20116;-69
2021/10/31 12:18:08;;;;;;;;;;;;;;;12.53;60.12;102062.97;1897633;76;20120;-70
2021/10/31 12:20:50;;;;;;;;;;;;;;;12.49;60.47;102065.29;1897681;76;20112;-69
2021/10/31 12:23:19;;;;;;;;;;;;;;;12.51;60.46;102067.44;1897580;76;20124;-68
2021/10/31 12:25:48;;;;;;;;;;;;;;;12.47;60.71;102066.64;1900878;74;20413;-59
2021/10/31 12:28:20;;;;;;;;;;;;;;;12.43;61.00;102064.11;1930835;74;20118;-63
2021/10/31 12:30:48;;;;;;;;;;;;;;;12.38;61.23;102063.38;1938634;73;20114;-62
2021/10/31 12:33:16;;;;;;;;;;;;;;;12.36;61.26;102064.73;1929590;74;20106;-61
2021/10/31 12:35:46;;;;;;;;;;;;;;;12.38;61.17;102062.06;1929567;73;20187;-63
2021/10/31 12:38:18;;;;;;;;;;;;;;;12.39;61.23;102066.42;1930893;74;20165;-61
2021/10/31 12:41:11;;;;;;;;;;;;;;;12.38;61.41;102061.59;1924527;74;20390;-61
2021/10/31 12:43:40;;;;;;;;;;;;;;;12.36;61.51;102061.63;1897433;75;20151;-62
2021/10/31 12:46:21;;;;;;;;;;;;;;;12.34;61.80;102062.12;1905850;74;20114;-59
2021/10/31 12:48:49;;;;;;;;;;;;;;;12.32;61.78;102059.09;1931015;73;20593;-59
2021/10/31 12:51:27;;;;;;;;;;;;;;;12.31;61.97;102060.87;1928659;73;20118;-67
2021/10/31 12:53:58;;;;;;;;;;;;;;;12.27;62.14;102057.91;1876299;75;20103;-68
2021/10/31 12:56:30;;;;;;;;;;;;;;;12.24;62.28;102059.29;1908330;74;20144;-67
2021/10/31 12:59:05;;;;;;;;;;;;;;;12.23;62.40;102064.60;1930796;74;20102;-68
2021/10/31 13:01:34;;;;;;;;;;;;;;;12.21;62.31;102054.10;1916442;74;20402;-67
2021/10/31 13:04:06;;;;;;;;;;;;;;;12.21;62.31;102055.85;1879789;76;20368;-67